Alton, TX

7:18 AM CDT on July 23, 2014 (GMT -0500)
Edinburg (KEBG) Elev 79 ft | 26.44 °N, 98.13 °W | Change Station

Current weather conditions updated 3 minutes ago

Clear
Clear
78 °F
Feels Like 78 °F
N
0
Wind Variable Wind from North

Today is forecast to be nearly the same temperature as yesterday.

Today
High -- | Low -- °F
--% Chance of Precip.
Yesterday
High -- | Low -- °F
Precip. -- in
6:54 AM 8:25 PM
Waning Crescent, 11% visible
Pressure 30.02 in
Visibility 4.0 miles
Clouds Clear
Dew Point 75 °F
Humidity 90%
Rainfall 0.00 in
Snow Depth Not available.
UV 0 out of 12
Pollen 4.20 out of 12
Ozone Good
PM2.5 Moderate
Flu Activity Not available.
METAR KEBG 231215Z AUTO 00000KT 4SM BR CLR 26/24 A3002 RMK AO2 T02570240

More Conditions Fewer Conditions

Pressure 30.02 in
Visibility 4.0 miles
Clouds Clear
Dew Point 75 °F
Humidity 90%
Rainfall 0.00 in
Snow Depth Not available.
UV 0 out of 12
Pollen 4.20 out of 12
Ozone Good
PM2.5 Moderate
Flu Activity Not available.
METAR KEBG 231215Z AUTO 00000KT 4SM BR CLR 26/24 A3002 RMK AO2 T02570240

More Conditions Fewer Conditions

10-Day Weather Forecast

Almanac

Astronomy

Jul. 23, 2014 Rise Set
Actual Time 6:54 AM CDT 8:25 PM CDT
Civil Twilight 6:29 AM CDT 8:50 PM CDT
Nautical Twilight 5:58 AM CDT 9:20 PM CDT
Astronomical Twilight 5:27 AM CDT 9:51 PM CDT
Moon 4:12 AM CDT 5:56 PM CDT
Length of Visible Light 14h 21m
Length of Day
13h 30m
Tomorrow will be 0m 58s shorter.
Waning Crescent, 11% of the Moon is Illuminated
Today
Waning Crescent
Jul 26
New
Aug 3
First Quarter
Aug 10
Full
Aug 17
Last Quarter

Today's Extremes

State Highs State Lows

Community

WunderPhotos

Upload Photos

1,736,570 photos uploaded!

Nearby

Air Quality

  Air Quality AQ Index Pollutant
Yesterday Moderate
PM2.5
Yesterday Good
OZONE
Current Moderate
PM2.5
Current Good
OZONE
Wednesday Good
PM10
Wednesday Good
OZONE
Thursday Good
PM10
Thursday Good
OZONE
Friday Good
PM10
Friday Good
OZONE

Snow Depth

Station Depth Elevation
No new snow has been reported.

Earthquake Activity

City Distance Mag. Time & Date
No recent earthquake activity has been reported nearby.
Minimum magnitude displayed is 2.5.

Coastal Water Temperatures

Place Temperature
No Stations Reporting

Nearby Weather Stations

Station Location Temp. Heat Index Dew Point Humidity Wind Precip. Elev Updated Type
Whitewing, McAllen, TX 79.5 °F 85 °F 77 °F 92% East  at  0.0 mph 0.00 in / hr 138 ft 7:18 AM CDT Rapid Fire
Las Tranquitas Weather Station, La Joya, TX 79.0 °F 83 °F 76 °F 89% South  at  0.0 mph 0.00 in / hr 145 ft 7:15 AM CDT Normal
Edinburg, Tx (West), Edinburg, TX 80.2 °F 86 °F 77 °F 91% SSE  at  5.0 mph 0.00 in / hr 112 ft 7:18 AM CDT Rapid Fire
Gustavo Diaz Ordaz, Tamps, Ciudad Gustavo Díaz Ordaz 79.9 °F 85 °F 77 °F 89% SSW  at  4.0 mph 0.00 in / hr 151 ft 7:07 AM CDT Normal
RAWS SANTA ANA NWR TX, Hidalgo, TX 78 °F 81 °F 78 °F 100% North  at  0 mph 0.00 in / hr 89 ft 6:45 AM CDT MADIS

Show More Stations Show Fewer Stations